Time;durP1;ratioP1;P1;durP2;ratioP2;P2;SDS_P1;SDS_P2;PMS_P1;PMS_P2;Temp;Humidity;BMP_temperature;BMP_pressure;BME280_temperature;BME280_humidity;BME280_pressure;Samples;Min_cycle;Max_cycle;Signal;HPM_P1;HPM_P2
2022/06/28 00:00:49;;;;;;;;;2.25;2.25;;;;;;;;5097653;27;45292;-52
2022/06/28 00:03:14;;;;;;;;;3.75;3.75;;;;;;;;5097937;27;45337;-51
2022/06/28 00:05:40;;;;;;;;;1.75;1.75;;;;;;;;5096627;27;45463;-49
2022/06/28 00:08:05;;;;;;;;;5.50;1.00;;;;;;;;5097996;27;45507;-54
2022/06/28 00:10:30;;;;;;;;;2.25;2.25;;;;;;;;5096265;27;46166;-53
2022/06/28 00:12:56;;;;;;;;;1.25;1.25;;;;;;;;5097668;27;45468;-54
2022/06/28 00:16:06;;;;;;;;;1.00;1.00;;;;;;;;5098031;27;45279;-53
2022/06/28 00:18:07;;;;;;;;;1.00;1.00;;;;;;;;5090371;27;45541;-51
2022/06/28 00:20:32;;;;;;;;;1.00;1.00;;;;;;;;5096937;27;45745;-53
2022/06/28 00:22:57;;;;;;;;;1.00;1.00;;;;;;;;5097643;27;45203;-51
2022/06/28 00:25:22;;;;;;;;;3.50;2.00;;;;;;;;5097654;27;45283;-52
2022/06/28 00:27:47;;;;;;;;;1.00;1.00;;;;;;;;5097803;27;45363;-53
2022/06/28 00:30:13;;;;;;;;;1.00;1.00;;;;;;;;5097534;27;46040;-52
2022/06/28 00:32:38;;;;;;;;;2.50;2.00;;;;;;;;5097449;27;45311;-53
2022/06/28 00:35:04;;;;;;;;;1.25;1.25;;;;;;;;5097974;27;45408;-53
2022/06/28 00:37:29;;;;;;;;;2.00;2.00;;;;;;;;5097987;27;45418;-50
2022/06/28 00:39:55;;;;;;;;;2.00;0.75;;;;;;;;5097236;27;46382;-50
2022/06/28 00:42:21;;;;;;;;;2.50;2.00;;;;;;;;5097291;27;45398;-53
2022/06/28 00:44:46;;;;;;;;;3.00;1.75;;;;;;;;5097289;27;45214;-52
2022/06/28 00:47:12;;;;;;;;;2.75;1.25;;;;;;;;5097831;27;45372;-53
2022/06/28 00:49:39;;;;;;;;;1.00;1.00;;;;;;;;5097095;27;46129;-55
2022/06/28 00:52:05;;;;;;;;;2.50;1.25;;;;;;;;5097026;27;45443;-53
2022/06/28 00:54:30;;;;;;;;;1.00;1.00;;;;;;;;5097523;27;45423;-52
2022/06/28 00:56:55;;;;;;;;;2.00;2.00;;;;;;;;5097345;27;45248;-51
2022/06/28 00:59:20;;;;;;;;;1.00;1.00;;;;;;;;5096027;27;45336;-53
2022/06/28 01:01:46;;;;;;;;;2.00;1.50;;;;;;;;5097151;27;45368;-52
2022/06/28 01:04:11;;;;;;;;;3.50;1.75;;;;;;;;5097090;27;45337;-51
2022/06/28 01:06:38;;;;;;;;;3.75;2.00;;;;;;;;5097474;27;45366;-52
2022/06/28 01:09:04;;;;;;;;;1.75;1.75;;;;;;;;5096669;27;46144;-53
2022/06/28 01:11:29;;;;;;;;;5.00;2.75;;;;;;;;5096993;27;45344;-53
2022/06/28 01:13:57;;;;;;;;;1.25;1.25;;;;;;;;5097090;27;45573;-53
2022/06/28 01:16:22;;;;;;;;;2.75;2.00;;;;;;;;5097120;27;45394;-50
2022/06/28 01:18:48;;;;;;;;;2.75;1.75;;;;;;;;5096821;27;46264;-52
2022/06/28 01:21:14;;;;;;;;;2.00;2.00;;;;;;;;5096742;27;45381;-52
2022/06/28 01:23:43;;;;;;;;;2.00;1.00;;;;;;;;5097266;27;45323;-52
2022/06/28 01:26:09;;;;;;;;;1.00;1.00;;;;;;;;5097107;27;45222;-53
2022/06/28 01:28:35;;;;;;;;;1.25;1.00;;;;;;;;5099725;27;45385;-49
2022/06/28 01:31:00;;;;;;;;;1.25;0.50;;;;;;;;5100650;27;45344;-52
2022/06/28 01:33:26;;;;;;;;;3.00;2.00;;;;;;;;5100551;27;45345;-51
2022/06/28 01:35:51;;;;;;;;;1.00;1.00;;;;;;;;5100788;27;45392;-51
2022/06/28 01:38:17;;;;;;;;;1.00;1.00;;;;;;;;5100050;27;47244;-54
2022/06/28 01:40:45;;;;;;;;;3.00;1.00;;;;;;;;5099894;27;45295;-54
2022/06/28 01:43:12;;;;;;;;;1.75;0.75;;;;;;;;5100124;27;45365;-52
2022/06/28 01:45:38;;;;;;;;;3.25;1.00;;;;;;;;5100503;27;45227;-51
2022/06/28 01:48:03;;;;;;;;;1.00;1.00;;;;;;;;5099788;27;45396;-49
2022/06/28 01:50:28;;;;;;;;;1.75;1.00;;;;;;;;5099919;27;45371;-53
2022/06/28 01:52:54;;;;;;;;;1.25;1.00;;;;;;;;5100082;27;45317;-53
2022/06/28 01:55:20;;;;;;;;;1.00;1.00;;;;;;;;5100450;27;45507;-51
2022/06/28 01:57:45;;;;;;;;;1.00;1.00;;;;;;;;5099929;27;45983;-53
2022/06/28 02:00:10;;;;;;;;;1.00;1.00;;;;;;;;5099992;27;45408;-52
2022/06/28 02:02:36;;;;;;;;;2.25;0.25;;;;;;;;5099958;27;45428;-53
2022/06/28 02:05:01;;;;;;;;;0.25;0.25;;;;;;;;5099949;27;45477;-53
2022/06/28 02:07:26;;;;;;;;;1.00;1.00;;;;;;;;5099863;27;45348;-53
2022/06/28 02:09:51;;;;;;;;;1.00;1.00;;;;;;;;5099678;27;45380;-52
2022/06/28 02:12:16;;;;;;;;;2.25;1.00;;;;;;;;5099751;27;45310;-52
2022/06/28 02:14:42;;;;;;;;;1.00;1.00;;;;;;;;5100001;27;45355;-53
2022/06/28 02:17:07;;;;;;;;;1.00;1.00;;;;;;;;5099538;27;45341;-54
2022/06/28 02:19:32;;;;;;;;;1.00;1.00;;;;;;;;5099333;27;45289;-52
2022/06/28 02:21:57;;;;;;;;;0.25;0.25;;;;;;;;5099636;27;45296;-52
2022/06/28 02:24:23;;;;;;;;;1.50;1.00;;;;;;;;5099838;27;45326;-52
2022/06/28 02:26:48;;;;;;;;;0.75;0.75;;;;;;;;5099394;27;46150;-52
2022/06/28 02:29:13;;;;;;;;;1.75;0.25;;;;;;;;5099330;27;45294;-51
2022/06/28 02:31:38;;;;;;;;;3.00;2.00;;;;;;;;5099767;27;45410;-51
2022/06/28 02:34:04;;;;;;;;;1.00;1.00;;;;;;;;5099737;27;45503;-54
2022/06/28 02:41:48;;;;;;;;;2.50;1.00;;;;;;;;5099353;27;45393;-51
2022/06/28 02:44:16;;;;;;;;;1.00;1.00;;;;;;;;5099298;27;45457;-55
2022/06/28 02:46:41;;;;;;;;;2.00;1.00;;;;;;;;5099228;27;45388;-51
2022/06/28 02:49:06;;;;;;;;;1.00;1.00;;;;;;;;5098855;27;45391;-53
2022/06/28 02:51:31;;;;;;;;;1.00;1.00;;;;;;;;5099220;27;45361;-52
2022/06/28 02:53:57;;;;;;;;;1.25;1.00;;;;;;;;5099319;27;45419;-52
2022/06/28 02:56:22;;;;;;;;;1.00;1.00;;;;;;;;5098825;27;46043;-54
2022/06/28 02:58:47;;;;;;;;;2.00;1.00;;;;;;;;5098857;27;45315;-49
2022/06/28 03:01:13;;;;;;;;;2.00;1.00;;;;;;;;5098976;27;45519;-53
2022/06/28 03:03:38;;;;;;;;;0.00;0.00;;;;;;;;5099392;27;45272;-49
2022/06/28 03:06:04;;;;;;;;;1.00;1.00;;;;;;;;5098672;27;46123;-53
2022/06/28 03:08:29;;;;;;;;;1.00;1.00;;;;;;;;5098712;27;45303;-51
2022/06/28 03:10:54;;;;;;;;;4.00;1.00;;;;;;;;5099149;27;45402;-51
2022/06/28 03:13:20;;;;;;;;;1.00;1.00;;;;;;;;5098710;27;45319;-51
2022/06/28 03:15:45;;;;;;;;;1.00;1.00;;;;;;;;5098805;27;46297;-53
2022/06/28 03:18:10;;;;;;;;;1.00;1.00;;;;;;;;5098857;27;45329;-54
2022/06/28 03:20:36;;;;;;;;;2.50;1.00;;;;;;;;5098261;27;45290;-53
2022/06/28 03:23:01;;;;;;;;;1.00;1.00;;;;;;;;5098914;27;45467;-50
2022/06/28 03:25:26;;;;;;;;;0.75;0.75;;;;;;;;5098471;27;45345;-53
2022/06/28 03:27:51;;;;;;;;;0.00;0.00;;;;;;;;5098708;27;45305;-51
2022/06/28 03:30:17;;;;;;;;;1.00;1.00;;;;;;;;5098765;27;45337;-54
2022/06/28 03:32:42;;;;;;;;;1.00;1.00;;;;;;;;5097231;27;45507;-52
2022/06/28 03:35:08;;;;;;;;;1.00;1.00;;;;;;;;5098452;27;45897;-53
2022/06/28 03:37:33;;;;;;;;;0.67;0.67;;;;;;;;5098382;27;45447;-53
2022/06/28 03:39:59;;;;;;;;;0.00;0.00;;;;;;;;5098649;27;45361;-51
2022/06/28 03:42:24;;;;;;;;;1.00;1.00;;;;;;;;5098508;27;45380;-49
2022/06/28 03:44:49;;;;;;;;;0.67;0.67;;;;;;;;5097851;27;46127;-52
2022/06/28 03:47:15;;;;;;;;;1.00;1.00;;;;;;;;5098277;27;45372;-51
2022/06/28 03:49:40;;;;;;;;;2.00;2.00;;;;;;;;5096444;27;45273;-52
2022/06/28 03:52:06;;;;;;;;;3.00;1.00;;;;;;;;5098597;27;45321;-51
2022/06/28 03:54:31;;;;;;;;;0.00;0.00;;;;;;;;5098020;27;46010;-51
2022/06/28 03:56:56;;;;;;;;;1.50;0.00;;;;;;;;5097995;27;45371;-54
2022/06/28 03:59:21;;;;;;;;;0.00;0.00;;;;;;;;5098031;27;45455;-51
2022/06/28 04:01:47;;;;;;;;;2.00;1.00;;;;;;;;5098131;27;45516;-51
2022/06/28 04:04:12;;;;;;;;;0.00;0.00;;;;;;;;5097881;27;45323;-52
2022/06/28 04:06:37;;;;;;;;;3.00;0.67;;;;;;;;5097882;27;45333;-54
2022/06/28 04:09:03;;;;;;;;;1.00;1.00;;;;;;;;5096543;27;45292;-51
2022/06/28 04:11:28;;;;;;;;;0.67;0.00;;;;;;;;5098418;27;45385;-50
2022/06/28 04:13:53;;;;;;;;;0.67;0.00;;;;;;;;5097430;27;46956;-51
2022/06/28 04:16:19;;;;;;;;;0.67;0.67;;;;;;;;5097837;27;45276;-52
2022/06/28 04:18:45;;;;;;;;;0.00;0.00;;;;;;;;5097687;27;45226;-54
2022/06/28 04:21:11;;;;;;;;;0.00;0.00;;;;;;;;5098057;27;45243;-52
2022/06/28 04:23:37;;;;;;;;;0.00;0.00;;;;;;;;5097766;27;46357;-51
2022/06/28 04:26:03;;;;;;;;;1.00;1.00;;;;;;;;5097745;27;45412;-52
2022/06/28 04:28:28;;;;;;;;;2.00;1.00;;;;;;;;5096299;27;45464;-53
2022/06/28 04:30:53;;;;;;;;;0.00;0.00;;;;;;;;5097868;27;45309;-54
2022/06/28 04:33:18;;;;;;;;;2.00;0.33;;;;;;;;5097458;27;45391;-54
2022/06/28 04:35:44;;;;;;;;;2.00;0.67;;;;;;;;5097439;27;45364;-54
2022/06/28 04:38:09;;;;;;;;;3.00;0.00;;;;;;;;5097445;27;45350;-51
2022/06/28 04:40:34;;;;;;;;;2.00;1.00;;;;;;;;5097747;27;45310;-52
2022/06/28 04:43:00;;;;;;;;;1.33;0.67;;;;;;;;5097363;27;46275;-53
2022/06/28 04:45:25;;;;;;;;;1.67;1.00;;;;;;;;5097214;27;45366;-54
2022/06/28 04:47:50;;;;;;;;;0.67;0.67;;;;;;;;5097443;27;45370;-55
2022/06/28 04:50:16;;;;;;;;;2.67;1.00;;;;;;;;5097368;27;45455;-53
2022/06/28 04:52:41;;;;;;;;;1.00;1.00;;;;;;;;5097257;27;46027;-51
2022/06/28 04:55:06;;;;;;;;;2.00;1.00;;;;;;;;5097094;27;45314;-54
2022/06/28 04:57:31;;;;;;;;;1.67;0.00;;;;;;;;5097442;27;45399;-52
2022/06/28 04:59:57;;;;;;;;;1.00;1.00;;;;;;;;5097317;27;45303;-55
2022/06/28 05:02:22;;;;;;;;;1.00;1.00;;;;;;;;5098638;27;45632;-54
2022/06/28 05:04:47;;;;;;;;;1.00;1.00;;;;;;;;5100971;27;45365;-50
2022/06/28 05:07:13;;;;;;;;;1.00;0.00;;;;;;;;5100786;27;45417;-54
2022/06/28 05:09:38;;;;;;;;;2.00;0.00;;;;;;;;5101030;27;45346;-53
2022/06/28 05:12:04;;;;;;;;;0.00;0.00;;;;;;;;5100501;27;45722;-53
2022/06/28 05:14:29;;;;;;;;;1.00;1.00;;;;;;;;5099760;27;45213;-51
2022/06/28 05:16:54;;;;;;;;;1.00;1.00;;;;;;;;5099570;27;45432;-49
2022/06/28 05:19:19;;;;;;;;;1.00;0.00;;;;;;;;5100568;27;45190;-53
2022/06/28 05:21:44;;;;;;;;;0.25;0.00;;;;;;;;5100554;27;46075;-55
2022/06/28 05:24:10;;;;;;;;;0.75;0.75;;;;;;;;5100425;27;45308;-55
2022/06/28 05:26:35;;;;;;;;;1.75;0.00;;;;;;;;5100586;27;45417;-52
2022/06/28 05:29:00;;;;;;;;;1.00;1.00;;;;;;;;5100606;27;45206;-54
2022/06/28 05:31:25;;;;;;;;;0.75;0.75;;;;;;;;5100129;27;46130;-53
2022/06/28 05:33:51;;;;;;;;;0.00;0.00;;;;;;;;5100789;27;45368;-52
2022/06/28 05:36:16;;;;;;;;;1.00;1.00;;;;;;;;5100407;27;45520;-50
2022/06/28 05:38:42;;;;;;;;;4.00;0.67;;;;;;;;5100474;27;45431;-54
2022/06/28 05:41:07;;;;;;;;;1.00;1.00;;;;;;;;5100335;27;45342;-54
2022/06/28 05:43:32;;;;;;;;;1.00;0.67;;;;;;;;5100199;27;45451;-50
2022/06/28 05:45:57;;;;;;;;;2.00;2.00;;;;;;;;5100371;27;45262;-49
2022/06/28 05:48:22;;;;;;;;;1.00;1.00;;;;;;;;5100379;27;45427;-51
2022/06/28 05:50:48;;;;;;;;;0.00;0.00;;;;;;;;5099949;27;46273;-55
2022/06/28 05:53:13;;;;;;;;;0.00;0.00;;;;;;;;5100016;27;45448;-51
2022/06/28 05:55:38;;;;;;;;;2.00;0.00;;;;;;;;5100026;27;45491;-52
2022/06/28 05:58:03;;;;;;;;;0.00;0.00;;;;;;;;5100254;27;45373;-52
2022/06/28 06:00:29;;;;;;;;;0.00;0.00;;;;;;;;5099640;27;46371;-49
2022/06/28 06:02:54;;;;;;;;;0.00;0.00;;;;;;;;5099865;27;45422;-50
2022/06/28 06:05:19;;;;;;;;;1.33;0.67;;;;;;;;5099991;27;45377;-51
2022/06/28 06:07:44;;;;;;;;;0.00;0.00;;;;;;;;5100089;27;45380;-54
2022/06/28 06:10:10;;;;;;;;;2.00;0.50;;;;;;;;5099756;27;46163;-51
2022/06/28 06:12:35;;;;;;;;;1.00;1.00;;;;;;;;5099416;27;45332;-51
2022/06/28 06:15:00;;;;;;;;;2.00;0.00;;;;;;;;5099635;27;45396;-52
2022/06/28 06:17:25;;;;;;;;;0.00;0.00;;;;;;;;5100116;27;45383;-52
2022/06/28 06:19:51;;;;;;;;;0.00;0.00;;;;;;;;5099423;27;46145;-52
2022/06/28 06:22:16;;;;;;;;;0.00;0.00;;;;;;;;5099935;27;45296;-52
2022/06/28 06:24:41;;;;;;;;;1.50;0.00;;;;;;;;5099693;27;45382;-52
2022/06/28 06:27:06;;;;;;;;;0.00;0.00;;;;;;;;5099919;27;45436;-53
2022/06/28 06:29:32;;;;;;;;;1.33;0.67;;;;;;;;5099325;27;45412;-50
2022/06/28 06:31:57;;;;;;;;;3.00;1.00;;;;;;;;5099222;27;45363;-52
2022/06/28 06:34:22;;;;;;;;;3.00;0.25;;;;;;;;5099713;27;45435;-52
2022/06/28 06:36:48;;;;;;;;;0.00;0.00;;;;;;;;5099619;27;45461;-50
2022/06/28 06:39:13;;;;;;;;;1.00;1.00;;;;;;;;5099586;27;47109;-53
2022/06/28 06:41:38;;;;;;;;;0.50;0.50;;;;;;;;5099262;27;45751;-52
2022/06/28 06:44:04;;;;;;;;;0.25;0.00;;;;;;;;5099282;27;45413;-50
2022/06/28 06:46:29;;;;;;;;;2.75;1.50;;;;;;;;5099477;27;45363;-52
2022/06/28 06:48:55;;;;;;;;;1.25;1.25;;;;;;;;5098872;27;46887;-51
2022/06/28 06:51:20;;;;;;;;;0.00;0.00;;;;;;;;5099306;27;45325;-52
2022/06/28 06:53:45;;;;;;;;;0.25;0.25;;;;;;;;5099119;27;45353;-53
2022/06/28 06:56:11;;;;;;;;;3.25;1.00;;;;;;;;5098947;27;45378;-54
2022/06/28 06:58:36;;;;;;;;;0.50;0.50;;;;;;;;5098873;27;46405;-52
2022/06/28 07:01:01;;;;;;;;;2.00;2.00;;;;;;;;5098811;27;45538;-52
2022/06/28 07:03:26;;;;;;;;;0.25;0.25;;;;;;;;5099223;27;45333;-52
2022/06/28 07:05:52;;;;;;;;;1.50;0.75;;;;;;;;5099254;27;45286;-53
2022/06/28 07:08:18;;;;;;;;;0.20;0.20;;;;;;;;5098521;27;46389;-54
2022/06/28 07:10:43;;;;;;;;;1.00;1.00;;;;;;;;5098985;27;45378;-52
2022/06/28 07:13:08;;;;;;;;;1.00;0.50;;;;;;;;5098741;27;45509;-51
2022/06/28 07:15:33;;;;;;;;;0.00;0.00;;;;;;;;5099072;27;45398;-53
2022/06/28 07:17:59;;;;;;;;;0.50;0.50;;;;;;;;5097354;27;45904;-55
2022/06/28 07:20:24;;;;;;;;;2.50;1.00;;;;;;;;5098345;27;45393;-53
2022/06/28 07:22:49;;;;;;;;;0.50;0.50;;;;;;;;5098827;27;45410;-52
2022/06/28 07:25:14;;;;;;;;;1.00;1.00;;;;;;;;5097835;27;45435;-52
2022/06/28 07:27:41;;;;;;;;;3.00;1.75;;;;;;;;5097240;27;46141;-52
2022/06/28 07:30:07;;;;;;;;;1.20;1.20;;;;;;;;5098228;27;45401;-52
2022/06/28 07:32:32;;;;;;;;;0.00;0.00;;;;;;;;5098312;27;45393;-52
2022/06/28 07:34:57;;;;;;;;;0.25;0.25;;;;;;;;5098453;27;45236;-52
2022/06/28 07:37:22;;;;;;;;;2.25;2.00;;;;;;;;5098015;27;45491;-53
2022/06/28 07:39:48;;;;;;;;;0.00;0.00;;;;;;;;5096969;27;45358;-53
2022/06/28 07:42:13;;;;;;;;;2.00;0.25;;;;;;;;5098107;27;45290;-52
2022/06/28 07:44:38;;;;;;;;;0.50;0.50;;;;;;;;5098496;27;45261;-53
2022/06/28 07:47:03;;;;;;;;;2.25;1.00;;;;;;;;5097917;27;45265;-53
2022/06/28 07:52:33;;;;;;;;;0.75;0.75;;;;;;;;5098012;27;45439;-53
2022/06/28 07:54:58;;;;;;;;;0.00;0.00;;;;;;;;5098305;27;45503;-52
2022/06/28 07:57:23;;;;;;;;;2.00;2.00;;;;;;;;5098189;27;45307;-53
2022/06/28 07:59:48;;;;;;;;;4.00;1.00;;;;;;;;5097785;27;45389;-52
2022/06/28 08:02:13;;;;;;;;;3.00;1.00;;;;;;;;5098007;27;45248;-53
2022/06/28 08:04:38;;;;;;;;;0.50;0.50;;;;;;;;5098215;27;45643;-52
2022/06/28 08:07:04;;;;;;;;;2.00;1.50;;;;;;;;5097782;27;46062;-55
2022/06/28 08:09:29;;;;;;;;;0.75;0.75;;;;;;;;5097859;27;45404;-52
2022/06/28 08:11:54;;;;;;;;;1.00;1.00;;;;;;;;5097798;27;45269;-52
2022/06/28 08:14:19;;;;;;;;;2.00;2.00;;;;;;;;5098041;27;45255;-49
2022/06/28 08:16:45;;;;;;;;;1.00;0.50;;;;;;;;5097418;27;45332;-53
2022/06/28 08:19:10;;;;;;;;;0.75;0.75;;;;;;;;5097577;27;45282;-55
2022/06/28 08:21:38;;;;;;;;;0.00;0.00;;;;;;;;5097978;27;45329;-52
2022/06/28 08:24:03;;;;;;;;;2.60;2.00;;;;;;;;5098168;27;45246;-52
2022/06/28 08:26:28;;;;;;;;;1.00;1.00;;;;;;;;5097817;27;45496;-53
2022/06/28 08:28:54;;;;;;;;;1.00;0.50;;;;;;;;5097613;27;45474;-54
2022/06/28 08:31:19;;;;;;;;;1.00;1.00;;;;;;;;5097503;27;45394;-54
2022/06/28 08:33:44;;;;;;;;;0.25;0.25;;;;;;;;5097934;27;45322;-56
2022/06/28 08:36:09;;;;;;;;;2.00;0.50;;;;;;;;5098691;27;45960;-53
2022/06/28 08:38:34;;;;;;;;;1.00;1.00;;;;;;;;5101174;27;45321;-54
2022/06/28 08:41:00;;;;;;;;;2.50;1.75;;;;;;;;5101169;27;45418;-54
2022/06/28 08:43:26;;;;;;;;;0.80;0.20;;;;;;;;5101500;27;45300;-55
2022/06/28 08:45:51;;;;;;;;;3.00;1.25;;;;;;;;5101212;27;45360;-54
2022/06/28 08:48:20;;;;;;;;;4.00;2.25;;;;;;;;5100840;27;45399;-55
2022/06/28 08:50:51;;;;;;;;;1.80;1.60;;;;;;;;5101129;27;45327;-53
2022/06/28 08:53:18;;;;;;;;;1.80;1.80;;;;;;;;5099816;27;45485;-54
2022/06/28 08:55:44;;;;;;;;;0.20;0.20;;;;;;;;5100668;27;46155;-55
2022/06/28 08:58:09;;;;;;;;;3.00;1.00;;;;;;;;5100772;27;45355;-53
2022/06/28 09:00:34;;;;;;;;;2.00;2.00;;;;;;;;5100678;27;45364;-54
2022/06/28 09:02:59;;;;;;;;;2.00;0.00;;;;;;;;5100891;27;45356;-54
2022/06/28 09:05:26;;;;;;;;;0.00;0.00;;;;;;;;5100569;27;47634;-55
2022/06/28 09:07:55;;;;;;;;;1.40;1.40;;;;;;;;5100552;27;45224;-54
2022/06/28 09:10:20;;;;;;;;;1.20;0.00;;;;;;;;5100868;27;45327;-54
2022/06/28 09:12:54;;;;;;;;;0.75;0.75;;;;;;;;5100787;27;45299;-55
2022/06/28 09:15:20;;;;;;;;;3.20;1.60;;;;;;;;5100460;27;47003;-54
2022/06/28 09:17:48;;;;;;;;;0.20;0.20;;;;;;;;5100382;27;45378;-54
2022/06/28 09:20:14;;;;;;;;;0.20;0.20;;;;;;;;5100236;27;45421;-55
2022/06/28 09:22:42;;;;;;;;;1.25;1.00;;;;;;;;5100668;27;45247;-56
2022/06/28 09:25:28;;;;;;;;;1.60;1.00;;;;;;;;5100418;27;45303;-54
2022/06/28 09:27:57;;;;;;;;;2.00;1.40;;;;;;;;5100189;27;45280;-54
2022/06/28 09:30:24;;;;;;;;;0.20;0.20;;;;;;;;5100225;27;45277;-56
2022/06/28 09:32:49;;;;;;;;;2.40;1.20;;;;;;;;5100388;27;45304;-55
2022/06/28 09:35:14;;;;;;;;;0.00;0.00;;;;;;;;5100072;27;45325;-53
2022/06/28 09:37:56;;;;;;;;;1.00;1.00;;;;;;;;5100103;27;45345;-57
2022/06/28 09:40:21;;;;;;;;;0.00;0.00;;;;;;;;5100420;27;45410;-54
2022/06/28 09:43:02;;;;;;;;;0.75;0.75;;;;;;;;5100325;27;45354;-55
2022/06/28 09:45:28;;;;;;;;;0.40;0.20;;;;;;;;5097917;27;62326;-54
2022/06/28 09:47:55;;;;;;;;;0.00;0.00;;;;;;;;5099042;27;45327;-56
2022/06/28 09:50:20;;;;;;;;;0.20;0.20;;;;;;;;5100222;27;45384;-55
2022/06/28 09:52:45;;;;;;;;;1.00;0.75;;;;;;;;5100160;27;45401;-56
2022/06/28 09:55:14;;;;;;;;;0.00;0.00;;;;;;;;5099960;27;46032;-55
2022/06/28 09:57:41;;;;;;;;;1.60;0.00;;;;;;;;5099601;27;45365;-54
2022/06/28 10:00:07;;;;;;;;;0.60;0.20;;;;;;;;5099924;27;45298;-53
2022/06/28 10:02:32;;;;;;;;;2.25;0.75;;;;;;;;5099966;27;45341;-54
2022/06/28 10:05:00;;;;;;;;;1.75;1.75;;;;;;;;5099606;27;45366;-53
2022/06/28 10:07:27;;;;;;;;;1.80;1.80;;;;;;;;5099811;27;45395;-62
2022/06/28 10:09:52;;;;;;;;;1.80;1.00;;;;;;;;5099946;27;45687;-55
2022/06/28 10:15:02;;;;;;;;;0.80;0.80;;;;;;;;5099385;27;45633;-55
2022/06/28 10:17:29;;;;;;;;;1.00;0.75;;;;;;;;5099681;27;45408;-54
2022/06/28 10:19:56;;;;;;;;;0.00;0.00;;;;;;;;5099093;27;45282;-55
2022/06/28 10:22:21;;;;;;;;;0.20;0.20;;;;;;;;5099578;27;45424;-54
2022/06/28 10:24:57;;;;;;;;;1.00;1.00;;;;;;;;5099435;27;47254;-55
2022/06/28 10:27:22;;;;;;;;;0.80;0.80;;;;;;;;5099400;27;45476;-55
2022/06/28 10:30:09;;;;;;;;;4.25;2.75;;;;;;;;5099503;27;45410;-53
2022/06/28 10:32:41;;;;;;;;;2.20;1.00;;;;;;;;5099412;27;45574;-54
2022/06/28 10:35:06;;;;;;;;;0.40;0.40;;;;;;;;5099345;27;46082;-54
2022/06/28 10:37:32;;;;;;;;;1.00;0.00;;;;;;;;5099230;27;45202;-53
2022/06/28 10:40:36;;;;;;;;;0.75;0.75;;;;;;;;5099219;27;45260;-54
2022/06/28 10:43:01;;;;;;;;;2.80;1.60;;;;;;;;5056370;28;45346;-53
2022/06/28 10:45:46;;;;;;;;;0.50;0.50;;;;;;;;5056381;28;45297;-55
2022/06/28 10:48:12;;;;;;;;;2.00;1.00;;;;;;;;5055917;28;45332;-54
2022/06/28 10:50:56;;;;;;;;;1.00;0.75;;;;;;;;5055654;28;45499;-54
2022/06/28 10:53:21;;;;;;;;;0.80;0.80;;;;;;;;5056299;28;45329;-54
2022/06/28 10:56:05;;;;;;;;;1.00;1.00;;;;;;;;5055947;28;46148;-54
2022/06/28 10:58:30;;;;;;;;;1.40;1.40;;;;;;;;5055932;28;45272;-54
2022/06/28 11:00:56;;;;;;;;;1.00;1.00;;;;;;;;5054806;28;45263;-54
2022/06/28 11:03:21;;;;;;;;;2.25;1.00;;;;;;;;5056273;28;45260;-54
2022/06/28 11:05:49;;;;;;;;;0.75;0.75;;;;;;;;5039062;28;48214;-54
2022/06/28 11:08:20;;;;;;;;;1.40;0.20;;;;;;;;5055921;28;45589;-53
2022/06/28 11:11:02;;;;;;;;;1.40;1.20;;;;;;;;5055857;28;45327;-52
2022/06/28 11:13:28;;;;;;;;;1.60;0.40;;;;;;;;5071770;27;45305;-52
2022/06/28 11:15:53;;;;;;;;;1.00;1.00;;;;;;;;5098408;27;46688;-54
2022/06/28 11:18:20;;;;;;;;;1.00;1.00;;;;;;;;5098432;27;45289;-51
2022/06/28 11:20:45;;;;;;;;;4.00;3.00;;;;;;;;5098361;27;45326;-53
2022/06/28 11:23:21;;;;;;;;;1.00;1.00;;;;;;;;5097447;27;45444;-52
2022/06/28 11:28:29;;;;;;;;;1.40;1.00;;;;;;;;5098485;27;45222;-52
2022/06/28 11:30:55;;;;;;;;;2.00;2.00;;;;;;;;5098536;27;45336;-52
2022/06/28 11:33:30;;;;;;;;;1.50;1.50;;;;;;;;5098722;27;45401;-53
2022/06/28 11:35:59;;;;;;;;;4.00;4.00;;;;;;;;5098183;27;46083;-53
2022/06/28 11:38:24;;;;;;;;;2.00;2.00;;;;;;;;5098135;27;45482;-49
2022/06/28 11:40:50;;;;;;;;;2.00;1.00;;;;;;;;5098368;27;45463;-53
2022/06/28 11:43:18;;;;;;;;;2.25;1.00;;;;;;;;5098706;27;45422;-53
2022/06/28 11:45:48;;;;;;;;;5.60;4.00;;;;;;;;5098029;27;45460;-54
2022/06/28 11:48:15;;;;;;;;;7.20;6.00;;;;;;;;5097960;27;45369;-53
2022/06/28 11:50:49;;;;;;;;;2.00;2.00;;;;;;;;5098184;27;45341;-53
2022/06/28 11:53:15;;;;;;;;;2.00;2.00;;;;;;;;5097440;27;45338;-52
2022/06/28 11:55:45;;;;;;;;;3.00;2.75;;;;;;;;5097192;27;45448;-52
2022/06/28 11:58:14;;;;;;;;;3.40;3.00;;;;;;;;5097136;27;45419;-53
2022/06/28 12:00:41;;;;;;;;;1.40;1.40;;;;;;;;5097095;27;45391;-53
2022/06/28 12:03:06;;;;;;;;;4.60;2.00;;;;;;;;5097276;27;45363;-54
2022/06/28 12:05:35;;;;;;;;;4.00;2.25;;;;;;;;5096919;27;46025;-52
2022/06/28 12:08:01;;;;;;;;;1.40;1.20;;;;;;;;5096662;27;45256;-53
2022/06/28 12:10:28;;;;;;;;;2.00;2.00;;;;;;;;5096620;27;45420;-53
2022/06/28 12:12:54;;;;;;;;;1.60;1.00;;;;;;;;5096983;27;45281;-54
2022/06/28 12:15:27;;;;;;;;;1.00;1.00;;;;;;;;5096516;27;46442;-54
2022/06/28 12:17:55;;;;;;;;;4.40;2.00;;;;;;;;5096696;27;45527;-52
2022/06/28 12:20:20;;;;;;;;;3.00;1.00;;;;;;;;5096458;27;45553;-53
2022/06/28 12:23:16;;;;;;;;;0.80;0.80;;;;;;;;5096541;27;45421;-54
2022/06/28 12:25:41;;;;;;;;;2.60;1.20;;;;;;;;5053368;28;45492;-53
2022/06/28 12:28:07;;;;;;;;;3.00;1.00;;;;;;;;5054173;28;45530;-54
2022/06/28 12:30:32;;;;;;;;;3.00;2.00;;;;;;;;5053783;28;45515;-52
2022/06/28 12:32:59;;;;;;;;;1.00;1.00;;;;;;;;5054027;28;45554;-53
2022/06/28 12:35:24;;;;;;;;;2.00;1.00;;;;;;;;5052804;28;45404;-53
2022/06/28 12:37:50;;;;;;;;;3.25;1.75;;;;;;;;5053257;28;45654;-53
2022/06/28 12:40:15;;;;;;;;;1.00;1.00;;;;;;;;5054146;28;45405;-54
2022/06/28 12:42:41;;;;;;;;;4.75;2.00;;;;;;;;5054054;28;45271;-54
2022/06/28 12:45:06;;;;;;;;;1.50;1.50;;;;;;;;5054338;28;46239;-55
2022/06/28 12:47:33;;;;;;;;;3.00;3.00;;;;;;;;5054367;28;45478;-52
2022/06/28 12:50:02;;;;;;;;;2.40;2.00;;;;;;;;5053948;28;45512;-54
2022/06/28 12:52:28;;;;;;;;;4.00;4.00;;;;;;;;5054361;28;45425;-54
2022/06/28 12:54:53;;;;;;;;;2.25;2.00;;;;;;;;5053771;28;46196;-54
2022/06/28 12:57:18;;;;;;;;;1.75;1.75;;;;;;;;5053903;28;45606;-54
2022/06/28 12:59:43;;;;;;;;;4.25;2.00;;;;;;;;5054225;28;45420;-54
2022/06/28 13:02:09;;;;;;;;;4.00;2.75;;;;;;;;5076606;27;45320;-54
2022/06/28 13:04:34;;;;;;;;;2.25;2.25;;;;;;;;5096884;27;46978;-53
2022/06/28 13:07:00;;;;;;;;;1.50;1.50;;;;;;;;5096794;27;45332;-55
2022/06/28 13:09:25;;;;;;;;;1.50;1.50;;;;;;;;5096864;27;45361;-53
2022/06/28 13:11:50;;;;;;;;;2.50;1.75;;;;;;;;5097103;27;45380;-54
2022/06/28 13:14:15;;;;;;;;;2.00;2.00;;;;;;;;5096605;27;45425;-53
2022/06/28 13:16:41;;;;;;;;;2.00;2.00;;;;;;;;5096996;27;45357;-54
2022/06/28 13:19:07;;;;;;;;;3.00;2.00;;;;;;;;5096387;27;45470;-55
2022/06/28 13:21:32;;;;;;;;;1.75;1.00;;;;;;;;5096836;27;45302;-53
2022/06/28 13:23:57;;;;;;;;;2.00;2.00;;;;;;;;5098893;27;46187;-54
2022/06/28 13:26:22;;;;;;;;;1.00;1.00;;;;;;;;5099955;27;45427;-53
2022/06/28 13:28:50;;;;;;;;;2.00;1.00;;;;;;;;5100506;27;45310;-53
2022/06/28 13:31:16;;;;;;;;;1.60;1.60;;;;;;;;5100033;27;45459;-52
2022/06/28 13:33:41;;;;;;;;;2.00;2.00;;;;;;;;5099950;27;45364;-53
2022/06/28 13:36:06;;;;;;;;;4.50;3.00;;;;;;;;5100034;27;45383;-53
2022/06/28 13:38:31;;;;;;;;;1.25;1.00;;;;;;;;5099988;27;45428;-53
2022/06/28 13:41:00;;;;;;;;;1.00;1.00;;;;;;;;5099179;27;45513;-53
2022/06/28 13:43:34;;;;;;;;;1.60;1.60;;;;;;;;5099630;27;47076;-53
2022/06/28 13:45:59;;;;;;;;;0.60;0.60;;;;;;;;5099674;27;45401;-54
2022/06/28 13:48:25;;;;;;;;;2.00;2.00;;;;;;;;5100231;27;45375;-51
2022/06/28 13:50:50;;;;;;;;;2.75;1.75;;;;;;;;5099728;27;45357;-53
2022/06/28 13:53:16;;;;;;;;;3.00;3.00;;;;;;;;5099783;27;45339;-54
2022/06/28 13:55:43;;;;;;;;;1.20;1.20;;;;;;;;5099553;27;45285;-50
2022/06/28 13:58:09;;;;;;;;;2.40;2.40;;;;;;;;5099793;27;45259;-51
2022/06/28 14:00:34;;;;;;;;;0.75;0.75;;;;;;;;5100024;27;45356;-54
2022/06/28 14:03:00;;;;;;;;;1.50;1.50;;;;;;;;5099603;27;46174;-53
2022/06/28 14:05:25;;;;;;;;;3.00;1.50;;;;;;;;5099467;27;45428;-54
2022/06/28 14:07:50;;;;;;;;;1.50;1.50;;;;;;;;5099628;27;45401;-53
2022/06/28 14:10:15;;;;;;;;;1.75;1.75;;;;;;;;5099540;27;45321;-52
2022/06/28 14:12:41;;;;;;;;;2.00;2.00;;;;;;;;5099335;27;46103;-54
2022/06/28 14:15:06;;;;;;;;;1.00;1.00;;;;;;;;5099262;27;45447;-52
2022/06/28 14:17:32;;;;;;;;;2.00;2.00;;;;;;;;5099616;27;45334;-54
2022/06/28 14:19:57;;;;;;;;;3.00;3.00;;;;;;;;5099156;27;45417;-55
2022/06/28 14:22:23;;;;;;;;;3.25;2.25;;;;;;;;5099203;27;46269;-55
2022/06/28 14:24:49;;;;;;;;;1.75;1.75;;;;;;;;5099383;27;45369;-53
2022/06/28 14:27:14;;;;;;;;;2.80;1.00;;;;;;;;5099357;27;45333;-53
2022/06/28 14:29:39;;;;;;;;;3.00;1.00;;;;;;;;5099507;27;45258;-54
2022/06/28 14:32:05;;;;;;;;;1.00;1.00;;;;;;;;5098991;27;46340;-53
2022/06/28 14:34:30;;;;;;;;;3.00;1.00;;;;;;;;5098701;27;45406;-53
2022/06/28 14:36:56;;;;;;;;;1.00;1.00;;;;;;;;5099495;27;45223;-54
2022/06/28 14:39:21;;;;;;;;;1.25;1.25;;;;;;;;5099236;27;45316;-54
2022/06/28 14:41:46;;;;;;;;;1.00;1.00;;;;;;;;5098665;27;45442;-54
2022/06/28 14:44:11;;;;;;;;;2.75;2.75;;;;;;;;5098939;27;45377;-53
2022/06/28 14:46:37;;;;;;;;;2.25;1.25;;;;;;;;5099030;27;45438;-54
2022/06/28 14:49:02;;;;;;;;;1.00;1.00;;;;;;;;5099177;27;45291;-53
2022/06/28 14:51:30;;;;;;;;;2.00;2.00;;;;;;;;5098715;27;45432;-52